Time;durP1;ratioP1;P1;durP2;ratioP2;P2;SDS_P1;SDS_P2;PMS_P1;PMS_P2;Temp;Humidity;BMP_temperature;BMP_pressure;BME280_temperature;BME280_humidity;BME280_pressure;Samples;Min_cycle;Max_cycle;Signal;HPM_P1;HPM_P2
2021/06/05 00:01:51;;;;;;;40.53;30.65;;;;;;;;;;5012535;28;20468;-66
2021/06/05 00:04:17;;;;;;;40.60;30.27;;;;;;;;;;5006377;28;20030;-66
2021/06/05 00:06:43;;;;;;;38.65;31.27;;;;;;;;;;5011942;28;20028;-66
2021/06/05 00:09:09;;;;;;;44.17;33.83;;;;;;;;;;5013171;28;20112;-66
2021/06/05 00:11:35;;;;;;;46.75;33.92;;;;;;;;;;5006801;28;20033;-67
2021/06/05 00:14:03;;;;;;;44.60;33.33;;;;;;;;;;5011388;28;20034;-67
2021/06/05 00:16:32;;;;;;;48.53;35.20;;;;;;;;;;5012001;28;20542;-66
2021/06/05 00:18:58;;;;;;;44.50;34.53;;;;;;;;;;5005046;28;20029;-66
2021/06/05 00:21:25;;;;;;;46.58;36.55;;;;;;;;;;5012189;28;20101;-67
2021/06/05 00:23:51;;;;;;;45.92;36.38;;;;;;;;;;4999296;28;20071;-67
2021/06/05 00:26:17;;;;;;;46.78;34.70;;;;;;;;;;5005624;28;20041;-66
2021/06/05 00:28:43;;;;;;;49.22;35.30;;;;;;;;;;5008450;28;20033;-66
2021/06/05 00:31:09;;;;;;;46.63;34.97;;;;;;;;;;5003252;28;20018;-66
2021/06/05 00:33:35;;;;;;;43.22;33.22;;;;;;;;;;5011922;28;20033;-66
2021/06/05 00:36:02;;;;;;;44.20;32.67;;;;;;;;;;5012221;28;20037;-66
2021/06/05 00:38:28;;;;;;;45.63;32.90;;;;;;;;;;5012237;28;20037;-68
2021/06/05 00:40:56;;;;;;;41.55;31.50;;;;;;;;;;5011731;28;20468;-68
2021/06/05 00:43:24;;;;;;;41.90;29.38;;;;;;;;;;5011633;28;20037;-68
2021/06/05 00:45:50;;;;;;;41.92;31.85;;;;;;;;;;5012064;28;20045;-66
2021/06/05 00:48:17;;;;;;;41.47;31.17;;;;;;;;;;5011196;28;20038;-67
2021/06/05 00:50:44;;;;;;;43.33;32.80;;;;;;;;;;5002420;28;20061;-68
2021/06/05 00:53:12;;;;;;;40.15;31.75;;;;;;;;;;5012402;28;20506;-69
2021/06/05 00:55:40;;;;;;;40.75;31.33;;;;;;;;;;5002022;28;20038;-68
2021/06/05 00:58:06;;;;;;;43.58;31.42;;;;;;;;;;5005241;28;20521;-68
2021/06/05 01:00:40;;;;;;;42.08;32.22;;;;;;;;;;5002920;28;20395;-68
2021/06/05 01:03:06;;;;;;;42.25;31.42;;;;;;;;;;5010677;28;20026;-68
2021/06/05 01:05:34;;;;;;;40.35;32.72;;;;;;;;;;5002935;28;20412;-68
2021/06/05 01:08:09;;;;;;;43.97;33.97;;;;;;;;;;5008755;28;20109;-69
2021/06/05 01:10:37;;;;;;;47.42;33.92;;;;;;;;;;5012186;28;20649;-68
2021/06/05 01:13:09;;;;;;;47.13;35.33;;;;;;;;;;5001311;28;20033;-68
2021/06/05 01:15:44;;;;;;;48.38;35.35;;;;;;;;;;5011665;28;20040;-68
2021/06/05 01:18:15;;;;;;;49.92;36.33;;;;;;;;;;5011483;28;20028;-68
2021/06/05 01:20:46;;;;;;;55.25;35.33;;;;;;;;;;5010690;28;20498;-67
2021/06/05 01:23:28;;;;;;;43.80;35.65;;;;;;;;;;5008174;28;20112;-68
2021/06/05 01:25:57;;;;;;;47.92;34.05;;;;;;;;;;5010140;28;20036;-69
2021/06/05 01:28:26;;;;;;;43.43;33.87;;;;;;;;;;5011280;28;20021;-68
2021/06/05 01:30:56;;;;;;;45.33;33.60;;;;;;;;;;4997465;28;20030;-67
2021/06/05 01:33:23;;;;;;;47.42;35.15;;;;;;;;;;5004044;28;20030;-69
2021/06/05 01:35:49;;;;;;;48.60;34.45;;;;;;;;;;5007702;28;20030;-68
2021/06/05 01:38:16;;;;;;;47.42;32.92;;;;;;;;;;5005403;28;20022;-68
2021/06/05 01:40:44;;;;;;;45.25;34.30;;;;;;;;;;5015203;28;20122;-69
2021/06/05 01:43:12;;;;;;;45.35;33.25;;;;;;;;;;5010097;28;20435;-69
2021/06/05 01:45:39;;;;;;;46.53;35.00;;;;;;;;;;5015376;28;20498;-68
2021/06/05 01:48:06;;;;;;;45.50;31.60;;;;;;;;;;5010062;28;20026;-68
2021/06/05 01:50:33;;;;;;;37.97;29.50;;;;;;;;;;5007839;28;20037;-68
2021/06/05 01:53:04;;;;;;;41.67;31.05;;;;;;;;;;5007486;28;20037;-68
2021/06/05 01:55:39;;;;;;;38.03;29.30;;;;;;;;;;5014862;28;20109;-68
2021/06/05 01:58:13;;;;;;;39.10;29.42;;;;;;;;;;5013275;28;20508;-69
2021/06/05 02:00:40;;;;;;;40.17;29.02;;;;;;;;;;4999288;28;20431;-68
2021/06/05 02:03:07;;;;;;;38.83;29.33;;;;;;;;;;5009555;28;20018;-68
2021/06/05 02:05:33;;;;;;;38.10;27.48;;;;;;;;;;5014599;28;20499;-68
2021/06/05 02:07:59;;;;;;;39.15;27.08;;;;;;;;;;5015298;28;20109;-69
2021/06/05 02:10:26;;;;;;;41.17;27.60;;;;;;;;;;5013520;28;20030;-68
2021/06/05 02:12:53;;;;;;;36.72;29.20;;;;;;;;;;5015218;28;20788;-68
2021/06/05 02:15:22;;;;;;;41.67;30.25;;;;;;;;;;5003881;28;20030;-68
2021/06/05 02:17:48;;;;;;;39.73;28.80;;;;;;;;;;5004220;28;20062;-68
2021/06/05 02:20:20;;;;;;;43.00;29.90;;;;;;;;;;5000762;28;20064;-68
2021/06/05 02:22:47;;;;;;;44.67;31.85;;;;;;;;;;5015380;28;20060;-69
2021/06/05 02:25:14;;;;;;;54.42;36.95;;;;;;;;;;5014218;28;20499;-68
2021/06/05 02:27:41;;;;;;;57.58;38.60;;;;;;;;;;5014750;28;20484;-68
2021/06/05 02:30:08;;;;;;;60.20;40.08;;;;;;;;;;5013753;28;20155;-68
2021/06/05 02:32:35;;;;;;;59.50;41.30;;;;;;;;;;5010256;28;20506;-67
2021/06/05 02:35:01;;;;;;;67.75;44.15;;;;;;;;;;5012286;28;20113;-67
2021/06/05 02:37:28;;;;;;;69.63;42.30;;;;;;;;;;5012208;28;20026;-67
2021/06/05 02:39:55;;;;;;;69.88;43.33;;;;;;;;;;5012752;28;20499;-67
2021/06/05 02:42:22;;;;;;;57.90;37.88;;;;;;;;;;5013144;28;20021;-67
2021/06/05 02:44:50;;;;;;;61.58;38.47;;;;;;;;;;5012324;28;20101;-67
2021/06/05 02:47:17;;;;;;;59.63;35.58;;;;;;;;;;5011051;28;20021;-67
2021/06/05 02:49:43;;;;;;;60.47;37.60;;;;;;;;;;5002532;28;20029;-67
2021/06/05 02:52:28;;;;;;;59.67;37.97;;;;;;;;;;5013198;28;20026;-67
2021/06/05 02:54:55;;;;;;;56.60;36.97;;;;;;;;;;5011591;28;20561;-67
2021/06/05 02:57:21;;;;;;;61.15;38.00;;;;;;;;;;4999379;28;20030;-67
2021/06/05 02:59:47;;;;;;;70.60;41.85;;;;;;;;;;5006494;28;20049;-67
2021/06/05 03:02:13;;;;;;;65.47;39.95;;;;;;;;;;4999542;28;20019;-67
2021/06/05 03:04:39;;;;;;;69.35;41.25;;;;;;;;;;5010356;28;20036;-67
2021/06/05 03:07:05;;;;;;;74.22;42.17;;;;;;;;;;5003276;28;20025;-67
2021/06/05 03:09:31;;;;;;;73.07;42.90;;;;;;;;;;5012754;28;20541;-67
2021/06/05 03:11:57;;;;;;;78.35;43.95;;;;;;;;;;5011759;28;20034;-67
2021/06/05 03:14:23;;;;;;;70.78;42.97;;;;;;;;;;5010034;28;20557;-67
2021/06/05 03:16:49;;;;;;;67.63;40.30;;;;;;;;;;5011507;28;20034;-67
2021/06/05 03:19:15;;;;;;;69.32;42.15;;;;;;;;;;5004618;28;20487;-67
2021/06/05 03:21:41;;;;;;;75.20;44.58;;;;;;;;;;5011577;28;20109;-67
2021/06/05 03:24:07;;;;;;;68.22;42.85;;;;;;;;;;5011145;28;20097;-67
2021/06/05 03:26:34;;;;;;;70.68;42.33;;;;;;;;;;5011587;28;20030;-67
2021/06/05 03:29:00;;;;;;;76.05;43.33;;;;;;;;;;5011755;28;20431;-67
2021/06/05 03:31:26;;;;;;;78.68;44.65;;;;;;;;;;5012225;28;20026;-67
2021/06/05 03:33:52;;;;;;;81.45;45.42;;;;;;;;;;5001437;28;20078;-67
2021/06/05 03:36:19;;;;;;;78.82;45.33;;;;;;;;;;5012022;28;20040;-68
2021/06/05 03:38:45;;;;;;;81.38;46.45;;;;;;;;;;5002093;28;20030;-67
2021/06/05 03:41:12;;;;;;;74.10;43.30;;;;;;;;;;5005735;28;20048;-67
2021/06/05 03:43:39;;;;;;;86.38;45.50;;;;;;;;;;5011310;28;20087;-67
2021/06/05 03:46:05;;;;;;;88.10;45.65;;;;;;;;;;5010743;28;20045;-67
2021/06/05 03:48:31;;;;;;;76.80;44.33;;;;;;;;;;5003042;28;20065;-68
2021/06/05 03:50:57;;;;;;;78.18;43.20;;;;;;;;;;5002625;28;20030;-67
2021/06/05 03:53:24;;;;;;;80.80;43.78;;;;;;;;;;5002556;28;20168;-68
2021/06/05 03:55:50;;;;;;;77.15;42.30;;;;;;;;;;4993501;28;20034;-67
2021/06/05 03:58:23;;;;;;;78.15;42.95;;;;;;;;;;5010090;28;20023;-67
2021/06/05 04:00:49;;;;;;;68.15;39.67;;;;;;;;;;5011285;28;20121;-67
2021/06/05 04:03:14;;;;;;;65.88;37.72;;;;;;;;;;5010457;28;20764;-67
2021/06/05 04:05:40;;;;;;;57.17;34.53;;;;;;;;;;5001986;28;20034;-67
2021/06/05 04:08:07;;;;;;;47.83;29.08;;;;;;;;;;5010534;28;20022;-67
2021/06/05 04:10:34;;;;;;;46.65;29.17;;;;;;;;;;5002015;28;20057;-67
2021/06/05 04:13:00;;;;;;;37.70;25.52;;;;;;;;;;5007446;28;20544;-67
2021/06/05 04:15:27;;;;;;;41.25;25.88;;;;;;;;;;5004061;28;20044;-67
2021/06/05 04:17:59;;;;;;;40.17;26.52;;;;;;;;;;4999325;28;20026;-67
2021/06/05 04:20:26;;;;;;;41.58;26.10;;;;;;;;;;5009444;28;20033;-67
2021/06/05 04:22:53;;;;;;;44.67;28.75;;;;;;;;;;5011034;28;20267;-67
2021/06/05 04:25:19;;;;;;;44.75;29.30;;;;;;;;;;5010788;28;20108;-67
2021/06/05 04:27:45;;;;;;;46.90;27.45;;;;;;;;;;5008600;28;20415;-67
2021/06/05 04:30:12;;;;;;;47.42;28.55;;;;;;;;;;5006234;28;20476;-67
2021/06/05 04:32:38;;;;;;;41.75;26.92;;;;;;;;;;5010020;28;20131;-67
2021/06/05 04:35:06;;;;;;;43.78;26.15;;;;;;;;;;5004085;28;20040;-67
2021/06/05 04:37:32;;;;;;;43.10;27.75;;;;;;;;;;4998810;28;20063;-67
2021/06/05 04:39:58;;;;;;;45.72;26.98;;;;;;;;;;5006509;28;20400;-67
2021/06/05 04:42:24;;;;;;;42.13;26.98;;;;;;;;;;5004964;28;20079;-67
2021/06/05 04:44:50;;;;;;;43.38;27.65;;;;;;;;;;5009783;28;20038;-67
2021/06/05 04:47:16;;;;;;;37.70;26.08;;;;;;;;;;5010376;28;20058;-67
2021/06/05 04:49:42;;;;;;;33.95;24.10;;;;;;;;;;5002291;28;20053;-67
2021/06/05 04:52:08;;;;;;;34.85;24.40;;;;;;;;;;5000743;28;20026;-67
2021/06/05 04:54:34;;;;;;;37.28;26.25;;;;;;;;;;5002609;28;20037;-67
2021/06/05 04:57:01;;;;;;;34.90;24.67;;;;;;;;;;4994591;28;20393;-67
2021/06/05 04:59:27;;;;;;;32.60;23.80;;;;;;;;;;4996938;28;20106;-67
2021/06/05 05:01:53;;;;;;;31.67;22.98;;;;;;;;;;5010014;28;20014;-67
2021/06/05 05:04:19;;;;;;;32.88;24.52;;;;;;;;;;5010636;28;20657;-67
2021/06/05 05:06:45;;;;;;;31.77;25.35;;;;;;;;;;5003632;28;20072;-67
2021/06/05 05:09:12;;;;;;;27.15;22.15;;;;;;;;;;5010665;28;20053;-67
2021/06/05 05:11:38;;;;;;;29.30;22.10;;;;;;;;;;5007395;28;20399;-67
2021/06/05 05:14:04;;;;;;;26.48;21.45;;;;;;;;;;4994010;28;20022;-67
2021/06/05 05:16:30;;;;;;;27.95;21.40;;;;;;;;;;5003959;28;20049;-67
2021/06/05 05:18:57;;;;;;;26.30;19.08;;;;;;;;;;4993817;28;20380;-67
2021/06/05 05:21:24;;;;;;;29.08;22.45;;;;;;;;;;5003597;28;20022;-67
2021/06/05 05:23:51;;;;;;;30.50;21.00;;;;;;;;;;5006743;28;20109;-67
2021/06/05 05:26:17;;;;;;;24.33;20.42;;;;;;;;;;5001489;28;20038;-67
2021/06/05 05:28:43;;;;;;;27.30;19.23;;;;;;;;;;5007841;28;20073;-67
2021/06/05 05:31:12;;;;;;;18.60;14.32;;;;;;;;;;5002813;28;20411;-67
2021/06/05 05:33:38;;;;;;;12.95;11.10;;;;;;;;;;5001997;28;20046;-67
2021/06/05 05:36:06;;;;;;;12.40;10.63;;;;;;;;;;5004835;28;20049;-67
2021/06/05 05:38:31;;;;;;;9.75;8.50;;;;;;;;;;5004327;28;20387;-67
2021/06/05 05:40:57;;;;;;;8.25;7.38;;;;;;;;;;5001421;28;20037;-67
2021/06/05 05:43:23;;;;;;;9.25;7.05;;;;;;;;;;5009983;28;20022;-67
2021/06/05 05:45:49;;;;;;;7.22;6.50;;;;;;;;;;5004621;28;20033;-67
2021/06/05 05:48:16;;;;;;;9.00;7.82;;;;;;;;;;5009864;28;20034;-67
2021/06/05 05:50:43;;;;;;;9.55;7.63;;;;;;;;;;5009899;28;20499;-67
2021/06/05 05:53:09;;;;;;;10.05;8.07;;;;;;;;;;5009685;28;20029;-67
2021/06/05 05:55:35;;;;;;;10.27;7.85;;;;;;;;;;5000424;28;20488;-67
2021/06/05 05:58:03;;;;;;;12.93;9.85;;;;;;;;;;4996434;28;20022;-67
2021/06/05 06:00:30;;;;;;;14.52;9.60;;;;;;;;;;5001363;28;20022;-67
2021/06/05 06:02:56;;;;;;;11.30;9.00;;;;;;;;;;4993612;28;20054;-67
2021/06/05 06:05:22;;;;;;;11.07;8.65;;;;;;;;;;5010062;28;20088;-67
2021/06/05 06:07:48;;;;;;;14.45;11.05;;;;;;;;;;5009383;28;20431;-67
2021/06/05 06:10:15;;;;;;;12.30;9.82;;;;;;;;;;5009742;28;20029;-67
2021/06/05 06:12:41;;;;;;;12.93;11.48;;;;;;;;;;4999890;28;20038;-67
2021/06/05 06:15:15;;;;;;;11.80;10.52;;;;;;;;;;5006502;28;20053;-67
2021/06/05 06:17:42;;;;;;;11.30;9.15;;;;;;;;;;5002558;28;20026;-67
2021/06/05 06:20:08;;;;;;;11.25;9.98;;;;;;;;;;5006162;28;20030;-67
2021/06/05 06:22:36;;;;;;;11.40;8.95;;;;;;;;;;5002965;28;20026;-67
2021/06/05 06:25:02;;;;;;;10.65;9.45;;;;;;;;;;5007977;28;20117;-67
2021/06/05 06:27:28;;;;;;;10.52;9.20;;;;;;;;;;5013050;28;20489;-67
2021/06/05 06:29:54;;;;;;;11.13;10.02;;;;;;;;;;5006784;28;20022;-67
2021/06/05 06:32:20;;;;;;;9.95;8.95;;;;;;;;;;5012442;28;20026;-67
2021/06/05 06:34:47;;;;;;;14.52;11.15;;;;;;;;;;5002548;28;20026;-67
2021/06/05 06:37:13;;;;;;;13.27;10.50;;;;;;;;;;5009332;28;20071;-67
2021/06/05 06:39:39;;;;;;;13.32;11.75;;;;;;;;;;5004049;28;20026;-67
2021/06/05 06:42:05;;;;;;;12.68;11.20;;;;;;;;;;5011223;28;20026;-67
2021/06/05 06:44:31;;;;;;;13.68;11.57;;;;;;;;;;4999729;28;20033;-67
2021/06/05 06:46:57;;;;;;;13.18;11.85;;;;;;;;;;5012989;28;20030;-67
2021/06/05 06:49:23;;;;;;;14.23;12.30;;;;;;;;;;5012008;28;20050;-67
2021/06/05 06:51:49;;;;;;;14.05;12.55;;;;;;;;;;5001614;28;20021;-67
2021/06/05 06:54:15;;;;;;;14.05;12.57;;;;;;;;;;5011403;28;20503;-67
2021/06/05 06:56:42;;;;;;;14.10;12.63;;;;;;;;;;5012152;28;20391;-68
2021/06/05 06:59:09;;;;;;;13.45;11.73;;;;;;;;;;5004930;28;20014;-68
2021/06/05 07:01:35;;;;;;;13.80;12.35;;;;;;;;;;5011204;28;20053;-68
2021/06/05 07:04:01;;;;;;;14.18;12.65;;;;;;;;;;5001731;28;20021;-67
2021/06/05 07:06:27;;;;;;;15.50;13.88;;;;;;;;;;5011901;28;20562;-67
2021/06/05 07:08:55;;;;;;;17.33;13.52;;;;;;;;;;4999840;28;20036;-67
2021/06/05 07:11:28;;;;;;;15.63;13.45;;;;;;;;;;5011917;28;20135;-67
2021/06/05 07:13:53;;;;;;;15.77;14.02;;;;;;;;;;5008336;28;20125;-67
2021/06/05 07:16:20;;;;;;;20.20;13.98;;;;;;;;;;5011973;28;20112;-67
2021/06/05 07:18:46;;;;;;;18.00;13.68;;;;;;;;;;5011671;28;20033;-67
2021/06/05 07:21:13;;;;;;;20.02;15.90;;;;;;;;;;5004051;28;20050;-67
2021/06/05 07:23:40;;;;;;;18.05;14.50;;;;;;;;;;5011637;28;20050;-67
2021/06/05 07:26:08;;;;;;;15.85;13.65;;;;;;;;;;5007077;28;20030;-67
2021/06/05 07:28:36;;;;;;;15.57;13.73;;;;;;;;;;5000690;28;20026;-67
2021/06/05 07:31:03;;;;;;;15.93;14.23;;;;;;;;;;5012065;28;20395;-67
2021/06/05 07:33:30;;;;;;;17.92;15.32;;;;;;;;;;5003366;28;20101;-67
2021/06/05 07:35:56;;;;;;;17.02;13.50;;;;;;;;;;5007870;28;20057;-67
2021/06/05 07:38:22;;;;;;;14.73;12.88;;;;;;;;;;5004371;28;20483;-67
2021/06/05 07:40:49;;;;;;;12.65;11.35;;;;;;;;;;5004787;28;20022;-67
2021/06/05 07:43:16;;;;;;;14.20;11.63;;;;;;;;;;5012183;28;20029;-67
2021/06/05 07:45:42;;;;;;;16.23;12.35;;;;;;;;;;5011763;28;20105;-67
2021/06/05 07:48:08;;;;;;;14.52;12.43;;;;;;;;;;5011068;28;20022;-68
2021/06/05 07:50:34;;;;;;;16.63;13.57;;;;;;;;;;5001202;28;20065;-67
2021/06/05 07:53:00;;;;;;;16.80;13.38;;;;;;;;;;4996469;28;20054;-67
2021/06/05 07:55:27;;;;;;;21.15;15.40;;;;;;;;;;4991907;28;20520;-67
2021/06/05 07:57:53;;;;;;;21.23;15.10;;;;;;;;;;5002281;28;20022;-67
2021/06/05 08:00:20;;;;;;;21.77;16.77;;;;;;;;;;5008970;28;20033;-68
2021/06/05 08:02:46;;;;;;;22.65;17.17;;;;;;;;;;4998176;28;20030;-65
2021/06/05 08:05:13;;;;;;;22.52;17.10;;;;;;;;;;5005060;28;20034;-66
2021/06/05 08:07:39;;;;;;;20.52;16.88;;;;;;;;;;4996194;28;20026;-66
2021/06/05 08:10:06;;;;;;;23.45;16.77;;;;;;;;;;5003790;28;20049;-66
2021/06/05 08:12:32;;;;;;;23.38;17.27;;;;;;;;;;4993195;28;20022;-65
2021/06/05 08:14:58;;;;;;;19.45;15.90;;;;;;;;;;4997655;28;20034;-67
2021/06/05 08:17:24;;;;;;;19.77;16.52;;;;;;;;;;5015150;28;20037;-66
2021/06/05 08:19:50;;;;;;;23.83;17.73;;;;;;;;;;5026811;28;20478;-66
2021/06/05 08:22:22;;;;;;;18.20;14.13;;;;;;;;;;5023110;28;20025;-66
2021/06/05 08:24:48;;;;;;;14.52;13.00;;;;;;;;;;5017371;28;20014;-66
2021/06/05 08:27:15;;;;;;;15.05;11.85;;;;;;;;;;5019548;28;20554;-66
2021/06/05 08:29:41;;;;;;;13.82;12.10;;;;;;;;;;5021535;28;20021;-66
2021/06/05 08:32:07;;;;;;;14.55;12.50;;;;;;;;;;5020285;28;20040;-66
2021/06/05 08:34:33;;;;;;;12.38;10.60;;;;;;;;;;5020519;28;20566;-68
2021/06/05 08:36:59;;;;;;;12.18;10.48;;;;;;;;;;5029872;28;20028;-67
2021/06/05 08:39:25;;;;;;;11.85;9.20;;;;;;;;;;5037525;28;20036;-67
2021/06/05 08:41:53;;;;;;;11.25;9.60;;;;;;;;;;5026317;28;20383;-68
2021/06/05 08:44:35;;;;;;;11.70;9.90;;;;;;;;;;5020502;28;20495;-66
2021/06/05 08:47:19;;;;;;;10.18;9.07;;;;;;;;;;5023580;28;20494;-68
2021/06/05 08:49:46;;;;;;;14.20;10.95;;;;;;;;;;5053509;28;20064;-67
2021/06/05 08:52:12;;;;;;;13.25;10.32;;;;;;;;;;5031914;28;20079;-70
2021/06/05 08:54:45;;;;;;;14.38;11.52;;;;;;;;;;5022631;28;20611;-69
2021/06/05 08:57:16;;;;;;;14.20;11.70;;;;;;;;;;5029671;28;20482;-67
2021/06/05 08:59:46;;;;;;;16.17;12.93;;;;;;;;;;5026590;28;20061;-68
2021/06/05 09:02:12;;;;;;;;;;;;;;;;;;5030137;28;20029;-69
2021/06/05 09:04:38;;;;;;;21.02;13.95;;;;;;;;;;5031069;28;19904;-69
2021/06/05 09:07:06;;;;;;;15.35;12.30;;;;;;;;;;5029880;28;20033;-69
2021/06/05 09:09:34;;;;;;;13.35;11.73;;;;;;;;;;5029850;28;20029;-69
2021/06/05 09:12:00;;;;;;;13.73;11.43;;;;;;;;;;5029437;28;20108;-69
2021/06/05 09:14:27;;;;;;;15.05;13.40;;;;;;;;;;5029595;28;20030;-69
2021/06/05 09:16:54;;;;;;;18.63;15.20;;;;;;;;;;5029135;28;20656;-69
2021/06/05 09:19:23;;;;;;;18.75;15.13;;;;;;;;;;5026167;28;20033;-69
2021/06/05 09:21:57;;;;;;;16.65;14.23;;;;;;;;;;5045251;28;20029;-68
2021/06/05 09:24:38;;;;;;;17.52;14.68;;;;;;;;;;5029531;28;20041;-68
2021/06/05 09:27:04;;;;;;;17.52;13.90;;;;;;;;;;5022296;28;20030;-67
2021/06/05 09:29:31;;;;;;;17.70;13.02;;;;;;;;;;5029380;28;20487;-68
2021/06/05 09:31:57;;;;;;;15.38;12.77;;;;;;;;;;5029427;28;20030;-67
2021/06/05 09:34:31;;;;;;;14.75;12.48;;;;;;;;;;5028975;28;20030;-68
2021/06/05 09:36:57;;;;;;;16.08;13.05;;;;;;;;;;5029408;28;20053;-68
2021/06/05 09:39:41;;;;;;;14.63;12.40;;;;;;;;;;5029091;28;20063;-68
2021/06/05 09:42:09;;;;;;;15.23;13.25;;;;;;;;;;5029747;28;20482;-68
2021/06/05 09:44:39;;;;;;;15.88;12.38;;;;;;;;;;5028989;28;20021;-68
2021/06/05 09:47:17;;;;;;;17.27;13.07;;;;;;;;;;5029107;28;20048;-67
2021/06/05 09:49:50;;;;;;;18.13;13.25;;;;;;;;;;5031262;28;20048;-68
2021/06/05 09:52:36;;;;;;;16.95;12.48;;;;;;;;;;5034260;28;20022;-67
2021/06/05 09:55:29;;;;;;;16.88;13.13;;;;;;;;;;5017278;28;20076;-68
2021/06/05 09:57:55;;;;;;;19.90;13.98;;;;;;;;;;5014718;28;20038;-68
2021/06/05 10:00:21;;;;;;;17.92;13.70;;;;;;;;;;5013622;28;20106;-68
2021/06/05 10:02:49;;;;;;;18.92;14.07;;;;;;;;;;5016629;28;20105;-68
2021/06/05 10:05:27;;;;;;;19.65;14.60;;;;;;;;;;5014748;28;20018;-68
2021/06/05 10:07:54;;;;;;;17.77;13.88;;;;;;;;;;5016651;28;20083;-68
2021/06/05 10:10:20;;;;;;;23.40;14.85;;;;;;;;;;5019620;28;20388;-67
2021/06/05 10:12:46;;;;;;;18.77;13.35;;;;;;;;;;5020191;28;20014;-68
2021/06/05 10:15:14;;;;;;;17.92;12.88;;;;;;;;;;5019366;28;20033;-68
2021/06/05 10:17:40;;;;;;;16.30;12.50;;;;;;;;;;5016573;28;20534;-68
2021/06/05 10:20:19;;;;;;;20.30;14.95;;;;;;;;;;5017853;28;20022;-68
2021/06/05 10:22:45;;;;;;;19.52;14.90;;;;;;;;;;5016299;28;20478;-68
2021/06/05 10:25:30;;;;;;;18.92;14.20;;;;;;;;;;5032566;28;20025;-70
2021/06/05 10:27:59;;;;;;;21.05;14.50;;;;;;;;;;5032872;28;20026;-70
2021/06/05 10:30:55;;;;;;;22.17;14.25;;;;;;;;;;5039875;28;20021;-70
2021/06/05 10:33:41;;;;;;;24.08;13.80;;;;;;;;;;5017007;28;20041;-69
2021/06/05 10:36:26;;;;;;;23.75;14.13;;;;;;;;;;5024466;28;20105;-71
2021/06/05 10:38:53;;;;;;;23.63;15.00;;;;;;;;;;5031817;28;20022;-70
2021/06/05 10:41:22;;;;;;;19.73;13.07;;;;;;;;;;5017574;28;20105;-70
2021/06/05 10:43:48;;;;;;;23.30;14.25;;;;;;;;;;5021643;28;20034;-68
2021/06/05 10:46:17;;;;;;;21.23;14.05;;;;;;;;;;5021118;28;20044;-68
2021/06/05 10:48:44;;;;;;;20.25;12.93;;;;;;;;;;5038855;28;20438;-68
2021/06/05 10:51:18;;;;;;;21.95;13.88;;;;;;;;;;5042303;28;20795;-69
2021/06/05 10:54:04;;;;;;;18.70;12.27;;;;;;;;;;5040729;28;20037;-70
2021/06/05 10:56:38;;;;;;;22.00;13.43;;;;;;;;;;5020215;28;20026;-70
2021/06/05 10:59:06;;;;;;;24.42;14.90;;;;;;;;;;5018025;28;20045;-70
2021/06/05 11:01:31;;;;;;;28.33;15.25;;;;;;;;;;5021505;28;20030;-70
2021/06/05 11:04:02;;;;;;;32.03;15.95;;;;;;;;;;5027561;28;20032;-70
2021/06/05 11:06:30;;;;;;;28.27;17.00;;;;;;;;;;5023065;28;20493;-70
2021/06/05 11:08:58;;;;;;;34.03;18.80;;;;;;;;;;5030779;28;20021;-70
2021/06/05 11:11:35;;;;;;;32.10;19.52;;;;;;;;;;5021858;28;20038;-70
2021/06/05 11:14:16;;;;;;;33.83;19.48;;;;;;;;;;5019560;28;20331;-70
2021/06/05 11:17:10;;;;;;;35.15;20.60;;;;;;;;;;5022689;28;20030;-70
2021/06/05 11:19:51;;;;;;;34.40;20.40;;;;;;;;;;5017879;28;20048;-70
2021/06/05 11:22:22;;;;;;;37.15;21.88;;;;;;;;;;5026459;28;20021;-70
2021/06/05 11:25:06;;;;;;;30.92;19.27;;;;;;;;;;5022196;28;20084;-70
2021/06/05 11:27:38;;;;;;;33.85;19.55;;;;;;;;;;5016350;28;20122;-70
2021/06/05 11:30:06;;;;;;;32.75;19.08;;;;;;;;;;5016857;28;20017;-70
2021/06/05 11:32:34;;;;;;;30.23;19.58;;;;;;;;;;5017308;28;20037;-70
2021/06/05 11:35:03;;;;;;;25.30;17.77;;;;;;;;;;5019605;28;20100;-70
2021/06/05 11:37:35;;;;;;;27.00;17.83;;;;;;;;;;5021415;28;20048;-70
2021/06/05 11:40:04;;;;;;;25.58;16.90;;;;;;;;;;5025498;28;20020;-70
2021/06/05 11:42:30;;;;;;;25.20;16.67;;;;;;;;;;5039350;28;20033;-71
2021/06/05 11:44:56;;;;;;;23.08;15.27;;;;;;;;;;5031511;28;20021;-70
2021/06/05 11:47:22;;;;;;;19.60;14.70;;;;;;;;;;5031672;28;20483;-70
2021/06/05 11:49:50;;;;;;;20.65;14.20;;;;;;;;;;5030414;28;20033;-70
2021/06/05 11:52:33;;;;;;;17.92;12.52;;;;;;;;;;5031735;28;20490;-70
2021/06/05 11:55:07;;;;;;;16.42;12.07;;;;;;;;;;5030663;28;20025;-70
2021/06/05 11:57:36;;;;;;;15.73;11.27;;;;;;;;;;5031023;28;20026;-70
2021/06/05 12:00:13;;;;;;;14.40;11.55;;;;;;;;;;5027592;28;20025;-69
2021/06/05 12:02:43;;;;;;;15.65;12.52;;;;;;;;;;5015277;28;20475;-68
2021/06/05 12:05:15;;;;;;;15.30;12.00;;;;;;;;;;5030862;28;20097;-69
2021/06/05 12:07:42;;;;;;;17.08;13.18;;;;;;;;;;5030827;28;20029;-69
2021/06/05 12:10:10;;;;;;;13.32;10.43;;;;;;;;;;5029680;28;20104;-68
2021/06/05 12:12:43;;;;;;;14.25;11.93;;;;;;;;;;5038508;28;20034;-69
2021/06/05 12:15:11;;;;;;;15.00;10.95;;;;;;;;;;5040636;28;20126;-69
2021/06/05 12:17:41;;;;;;;13.15;10.38;;;;;;;;;;5030713;28;20037;-70
2021/06/05 12:20:07;;;;;;;;;;;;;;;;;;5030644;28;20649;-68
2021/06/05 12:22:34;;;;;;;12.57;9.40;;;;;;;;;;5026826;28;19921;-67
2021/06/05 12:25:00;;;;;;;14.63;10.45;;;;;;;;;;5021344;28;20024;-67
2021/06/05 12:27:28;;;;;;;14.43;10.98;;;;;;;;;;5014116;28;20038;-68
2021/06/05 12:30:24;;;;;;;15.45;11.88;;;;;;;;;;5017367;28;20521;-67
2021/06/05 12:32:55;;;;;;;17.23;13.75;;;;;;;;;;5010157;28;20107;-70
2021/06/05 12:35:22;;;;;;;17.77;13.75;;;;;;;;;;5016557;28;20026;-70
2021/06/05 12:37:53;;;;;;;18.73;14.93;;;;;;;;;;5030806;28;20030;-70
2021/06/05 12:40:25;;;;;;;22.30;15.88;;;;;;;;;;5013451;28;20024;-70
2021/06/05 12:42:51;;;;;;;22.67;15.65;;;;;;;;;;5017991;28;20049;-70
2021/06/05 12:45:22;;;;;;;21.92;16.25;;;;;;;;;;5013225;28;20021;-70
2021/06/05 12:47:51;;;;;;;21.98;15.95;;;;;;;;;;5021912;28;20033;-69
2021/06/05 12:50:18;;;;;;;21.80;16.00;;;;;;;;;;5019928;28;20091;-71
2021/06/05 12:52:45;;;;;;;24.13;16.70;;;;;;;;;;5019091;28;20081;-69
2021/06/05 12:55:11;;;;;;;26.40;17.23;;;;;;;;;;5016226;28;20102;-69
2021/06/05 12:57:42;;;;;;;30.55;19.35;;;;;;;;;;5037165;28;20409;-69
2021/06/05 13:00:17;;;;;;;29.55;19.15;;;;;;;;;;5018868;28;20053;-69
2021/06/05 13:02:43;;;;;;;33.47;20.27;;;;;;;;;;5019173;28;20024;-69
2021/06/05 13:05:20;;;;;;;33.40;19.10;;;;;;;;;;5017886;28;20054;-69
2021/06/05 13:07:47;;;;;;;30.90;17.98;;;;;;;;;;5017396;28;20494;-68
2021/06/05 13:10:32;;;;;;;30.55;16.20;;;;;;;;;;5027528;28;20097;-68
2021/06/05 13:13:10;;;;;;;31.40;16.73;;;;;;;;;;5039326;28;20013;-71
2021/06/05 13:15:43;;;;;;;25.98;16.73;;;;;;;;;;5015716;28;21710;-71
2021/06/05 13:18:09;;;;;;;29.80;16.52;;;;;;;;;;5030377;28;20034;-68
2021/06/05 13:20:43;;;;;;;29.80;16.40;;;;;;;;;;5018205;28;20093;-68
2021/06/05 13:23:19;;;;;;;35.08;17.92;;;;;;;;;;5015167;28;20427;-70
2021/06/05 13:25:45;;;;;;;39.35;18.95;;;;;;;;;;5016904;28;20492;-71
2021/06/05 13:28:13;;;;;;;32.75;18.08;;;;;;;;;;5020277;28;20502;-68
2021/06/05 13:30:49;;;;;;;27.45;17.40;;;;;;;;;;5022228;28;20068;-68
2021/06/05 13:33:30;;;;;;;32.60;16.73;;;;;;;;;;5024107;28;20396;-68
2021/06/05 13:36:20;;;;;;;30.15;17.15;;;;;;;;;;5012638;28;20030;-68
2021/06/05 13:38:50;;;;;;;37.00;18.85;;;;;;;;;;5005442;28;20038;-69
2021/06/05 13:41:16;;;;;;;33.55;18.08;;;;;;;;;;5012306;28;20019;-69
2021/06/05 13:43:42;;;;;;;35.05;17.75;;;;;;;;;;5009516;28;20026;-69
2021/06/05 13:46:08;;;;;;;33.30;19.00;;;;;;;;;;5011284;28;20045;-69
2021/06/05 13:48:34;;;;;;;34.45;18.77;;;;;;;;;;5009991;28;20097;-68
2021/06/05 13:51:00;;;;;;;29.23;17.83;;;;;;;;;;5011743;28;20669;-68
2021/06/05 13:53:26;;;;;;;33.97;18.27;;;;;;;;;;5014337;28;20071;-69
2021/06/05 13:55:54;;;;;;;32.45;17.73;;;;;;;;;;5027696;28;20041;-69
2021/06/05 13:58:20;;;;;;;36.33;18.33;;;;;;;;;;5017257;28;20425;-68
2021/06/05 14:00:47;;;;;;;35.85;17.77;;;;;;;;;;5018656;28;20440;-68
2021/06/05 14:03:13;;;;;;;32.25;18.75;;;;;;;;;;5018220;28;20017;-69
2021/06/05 14:05:39;;;;;;;33.47;18.13;;;;;;;;;;5014640;28;20032;-69
2021/06/05 14:08:07;;;;;;;37.13;19.40;;;;;;;;;;5018035;28;20030;-69
2021/06/05 14:10:34;;;;;;;33.55;17.65;;;;;;;;;;5016469;28;20025;-68
2021/06/05 14:13:00;;;;;;;33.78;19.25;;;;;;;;;;5027880;28;20028;-69
2021/06/05 14:15:28;;;;;;;31.15;18.30;;;;;;;;;;5016413;28;20042;-69
2021/06/05 14:17:55;;;;;;;35.22;18.92;;;;;;;;;;5022024;28;20033;-69
2021/06/05 14:20:22;;;;;;;29.10;16.88;;;;;;;;;;5017182;28;22392;-68
2021/06/05 14:22:48;;;;;;;32.13;17.33;;;;;;;;;;5015046;28;20042;-69
2021/06/05 14:25:15;;;;;;;28.13;16.40;;;;;;;;;;5017831;28;20104;-69
2021/06/05 14:27:40;;;;;;;29.27;16.75;;;;;;;;;;5016852;28;20034;-69